createdAt,value
2023-03-25T00:02:08.004Z,14.70
2023-03-25T00:04:54.522Z,12.35
2023-03-25T00:07:40.568Z,21.98
2023-03-25T00:10:26.450Z,14.38
2023-03-25T00:13:13.574Z,15.23
2023-03-25T00:15:59.327Z,16.25
2023-03-25T00:18:44.816Z,23.30
2023-03-25T00:21:33.598Z,19.38
2023-03-25T00:24:19.194Z,11.13
2023-03-25T00:27:04.597Z,17.95
2023-03-25T00:29:50.481Z,19.80
2023-03-25T00:32:35.756Z,19.45
2023-03-25T00:35:22.341Z,15.85
2023-03-25T00:38:08.038Z,21.55
2023-03-25T00:40:53.427Z,17.98
2023-03-25T00:43:39.304Z,16.33
2023-03-25T00:46:29.111Z,23.30
2023-03-25T00:49:14.632Z,17.50
2023-03-25T00:52:00.633Z,23.42
2023-03-25T00:54:46.482Z,15.50
2023-03-25T00:57:32.275Z,20.30
2023-03-25T01:00:18.453Z,23.70
2023-03-25T01:03:04.171Z,19.70
2023-03-25T01:05:51.279Z,22.40
2023-03-25T01:08:38.883Z,14.55
2023-03-25T01:11:28.303Z,14.95
2023-03-25T01:14:19.220Z,19.10
2023-03-25T01:17:04.255Z,17.08
2023-03-25T01:19:49.690Z,15.38
2023-03-25T01:22:36.069Z,13.45
2023-03-25T01:25:21.618Z,17.48
2023-03-25T01:28:07.216Z,19.25
2023-03-25T01:31:05.006Z,16.27
2023-03-25T01:33:50.285Z,19.40
2023-03-25T01:36:37.480Z,18.58
2023-03-25T01:39:23.293Z,15.68
2023-03-25T01:42:11.720Z,18.15
2023-03-25T01:45:21.612Z,18.00
2023-03-25T01:48:18.872Z,23.13
2023-03-25T01:51:18.286Z,19.02
2023-03-25T01:54:04.453Z,20.02
2023-03-25T01:56:52.065Z,16.83
2023-03-25T01:59:39.786Z,20.63
2023-03-25T02:02:36.432Z,20.90
2023-03-25T02:05:29.145Z,18.25
2023-03-25T02:08:15.875Z,15.93
2023-03-25T02:11:01.431Z,18.95
2023-03-25T02:13:47.407Z,19.33
2023-03-25T02:17:02.366Z,22.10
2023-03-25T02:20:32.198Z,16.58
2023-03-25T02:23:47.981Z,19.10
2023-03-25T02:27:14.351Z,22.40
2023-03-25T02:30:31.869Z,19.67
2023-03-25T02:33:35.871Z,17.45
2023-03-25T02:36:24.418Z,20.80
2023-03-25T02:39:24.394Z,19.15
2023-03-25T02:42:41.809Z,20.23
2023-03-25T02:45:31.221Z,19.08
2023-03-25T02:48:33.145Z,19.40
2023-03-25T02:51:25.678Z,14.88
2023-03-25T02:54:13.971Z,21.45
2023-03-25T02:57:00.520Z,20.30
2023-03-25T02:59:48.961Z,17.30
2023-03-25T03:02:34.968Z,16.02
2023-03-25T03:05:24.290Z,20.35
2023-03-25T03:08:33.155Z,16.67
2023-03-25T03:11:21.636Z,20.58
2023-03-25T03:14:32.966Z,19.83
2023-03-25T03:17:50.270Z,15.60
2023-03-25T03:20:41.053Z,28.63
2023-03-25T03:23:33.710Z,25.63
2023-03-25T03:26:26.307Z,19.08
2023-03-25T03:29:17.912Z,23.90
2023-03-25T03:32:20.929Z,26.13
2023-03-25T03:35:19.277Z,25.98
2023-03-25T03:38:11.281Z,24.27
2023-03-25T03:41:01.998Z,29.65
2023-03-25T03:43:59.825Z,26.42
2023-03-25T03:47:07.522Z,19.38
2023-03-25T03:49:58.283Z,21.73
2023-03-25T03:52:50.504Z,29.50
2023-03-25T03:55:42.628Z,19.10
2023-03-25T03:58:42.687Z,33.10
2023-03-25T04:01:53.880Z,26.10
2023-03-25T04:04:42.840Z,29.27
2023-03-25T04:07:40.189Z,24.50
2023-03-25T04:10:52.557Z,22.63
2023-03-25T04:13:41.949Z,19.45
2023-03-25T04:16:28.448Z,27.55
2023-03-25T04:19:18.386Z,21.05
2023-03-25T04:22:05.200Z,25.42
2023-03-25T04:24:51.891Z,16.20
2023-03-25T04:27:37.736Z,20.77
2023-03-25T04:30:23.174Z,21.60
2023-03-25T04:33:08.957Z,19.15
2023-03-25T04:35:54.302Z,25.92
2023-03-25T04:38:40.705Z,26.63
2023-03-25T04:41:26.235Z,22.05
2023-03-25T04:44:12.530Z,25.38
2023-03-25T04:46:57.912Z,20.45
2023-03-25T04:49:45.178Z,21.35
2023-03-25T04:52:30.557Z,25.40
2023-03-25T04:55:17.775Z,15.40
2023-03-25T04:58:03.163Z,18.23
2023-03-25T05:00:51.916Z,22.63
2023-03-25T05:03:40.010Z,20.50
2023-03-25T05:06:26.316Z,21.95
2023-03-25T05:09:15.584Z,15.65
2023-03-25T05:12:00.885Z,20.30
2023-03-25T05:14:46.812Z,21.63
2023-03-25T05:17:32.375Z,19.50
2023-03-25T05:20:17.759Z,17.15
2023-03-25T05:23:04.237Z,24.58
2023-03-25T05:25:51.406Z,20.52
2023-03-25T05:28:39.256Z,16.52
2023-03-25T05:31:24.515Z,21.27
2023-03-25T05:34:10.060Z,14.45
2023-03-25T05:36:55.447Z,18.45
2023-03-25T05:39:40.930Z,17.33
2023-03-25T05:42:26.414Z,19.70
2023-03-25T05:45:11.976Z,16.45
2023-03-25T05:47:59.218Z,19.55
2023-03-25T05:50:44.725Z,25.42
2023-03-25T05:53:30.968Z,21.35
2023-03-25T05:56:20.410Z,16.92
2023-03-25T05:59:05.653Z,20.52
2023-03-25T06:01:51.031Z,17.02
2023-03-25T06:04:41.203Z,20.08
2023-03-25T06:07:26.550Z,17.60
2023-03-25T06:10:16.406Z,21.85
2023-03-25T06:13:01.455Z,20.55
2023-03-25T06:15:48.166Z,19.02
2023-03-25T06:18:33.867Z,19.05
2023-03-25T06:21:19.880Z,18.83
2023-03-25T06:24:05.650Z,18.77
2023-03-25T06:26:51.188Z,19.15
2023-03-25T06:29:41.773Z,21.13
2023-03-25T06:32:27.328Z,22.00
2023-03-25T06:35:12.949Z,18.70
2023-03-25T06:37:58.019Z,18.25
2023-03-25T06:40:49.898Z,19.13
2023-03-25T06:43:35.034Z,25.77
2023-03-25T06:46:39.182Z,22.30
2023-03-25T06:49:31.262Z,18.27
2023-03-25T06:52:18.113Z,17.48
2023-03-25T06:55:04.549Z,19.75
2023-03-25T06:57:50.199Z,21.27
2023-03-25T07:00:35.569Z,18.95
2023-03-25T07:03:21.304Z,21.85
2023-03-25T07:06:07.174Z,20.25
2023-03-25T07:08:52.756Z,17.35
2023-03-25T07:11:38.189Z,21.95
2023-03-25T07:14:23.649Z,18.92
2023-03-25T07:17:08.957Z,21.17
2023-03-25T07:19:54.449Z,19.58
2023-03-25T07:22:40.312Z,22.48
2023-03-25T07:25:25.423Z,25.60
2023-03-25T07:28:10.788Z,25.05
2023-03-25T07:31:02.099Z,17.50
2023-03-25T07:33:47.604Z,24.85
2023-03-25T07:36:33.036Z,19.67
2023-03-25T07:39:18.776Z,23.75
2023-03-25T07:42:06.338Z,16.98
2023-03-25T07:45:19.392Z,19.13
2023-03-25T07:48:05.873Z,21.50
2023-03-25T07:50:52.594Z,22.30
2023-03-25T07:53:39.082Z,23.05
2023-03-25T07:56:24.618Z,18.80
2023-03-25T07:59:10.024Z,19.33
2023-03-25T08:01:55.576Z,22.77
2023-03-25T08:04:41.008Z,17.90
2023-03-25T08:07:28.294Z,19.45
2023-03-25T08:10:15.416Z,16.25
2023-03-25T08:13:00.942Z,18.42
2023-03-25T08:15:46.094Z,19.02
2023-03-25T08:18:31.657Z,18.35
2023-03-25T08:21:17.184Z,19.15
2023-03-25T08:24:04.779Z,15.10
2023-03-25T08:26:50.215Z,19.10
2023-03-25T08:29:35.589Z,15.98
2023-03-25T08:32:21.590Z,15.77
2023-03-25T08:35:07.873Z,15.45
2023-03-25T08:37:53.074Z,18.38
2023-03-25T08:40:42.417Z,17.80
2023-03-25T08:43:27.542Z,15.30
2023-03-25T08:46:13.424Z,18.65
2023-03-25T08:48:59.190Z,12.07
2023-03-25T08:51:45.868Z,12.82
2023-03-25T08:54:31.155Z,23.65
2023-03-25T08:57:16.831Z,13.85
2023-03-25T09:00:05.385Z,15.98
2023-03-25T09:02:51.517Z,16.30
2023-03-25T09:05:38.995Z,16.63
2023-03-25T09:08:24.816Z,15.25
2023-03-25T09:11:11.429Z,25.92
2023-03-25T09:13:56.561Z,14.75
2023-03-25T09:16:42.080Z,13.57
2023-03-25T09:19:27.658Z,17.08
2023-03-25T09:22:13.094Z,16.83
2023-03-25T09:24:58.675Z,18.52
2023-03-25T09:27:44.100Z,19.60
2023-03-25T09:30:29.498Z,17.90
2023-03-25T09:33:15.105Z,16.67
2023-03-25T09:36:00.254Z,19.13
2023-03-25T09:38:45.808Z,15.52
2023-03-25T09:41:49.383Z,17.23
2023-03-25T09:44:52.197Z,14.73
2023-03-25T09:47:39.257Z,20.00
2023-03-25T09:50:25.924Z,21.33
2023-03-25T09:53:23.074Z,17.83
2023-03-25T09:56:16.357Z,11.95
2023-03-25T09:59:06.540Z,16.83
2023-03-25T10:01:54.531Z,22.08
2023-03-25T10:05:13.630Z,20.98
2023-03-25T10:08:38.033Z,19.05
2023-03-25T10:11:52.698Z,21.55
2023-03-25T10:14:59.324Z,18.65
2023-03-25T10:18:04.517Z,19.15
2023-03-25T10:21:00.037Z,14.05
2023-03-25T10:24:06.393Z,17.08
2023-03-25T10:27:05.456Z,17.20
2023-03-25T10:30:00.694Z,17.95
2023-03-25T10:33:01.743Z,19.10
2023-03-25T10:35:48.365Z,20.40
2023-03-25T10:38:36.530Z,24.60
2023-03-25T10:41:35.405Z,16.88
2023-03-25T10:44:22.712Z,15.25
2023-03-25T10:47:15.962Z,19.75
2023-03-25T10:50:01.935Z,11.55
2023-03-25T10:52:51.542Z,16.63
2023-03-25T10:55:41.208Z,25.02
2023-03-25T10:58:27.412Z,16.30
2023-03-25T11:01:15.863Z,18.85
2023-03-25T11:04:03.236Z,12.15
2023-03-25T11:06:57.833Z,17.27
2023-03-25T11:09:43.033Z,16.52
2023-03-25T11:12:42.524Z,19.52
2023-03-25T11:15:35.161Z,24.50
2023-03-25T11:18:30.993Z,28.73
2023-03-25T11:21:18.153Z,25.63
2023-03-25T11:24:06.469Z,19.30
2023-03-25T11:26:53.842Z,18.38
2023-03-25T11:29:39.580Z,32.13
2023-03-25T11:32:35.957Z,26.30
2023-03-25T11:35:26.928Z,19.90
2023-03-25T11:38:27.467Z,23.17
2023-03-25T11:41:14.172Z,23.23
2023-03-25T11:44:00.270Z,13.18
2023-03-25T11:46:49.227Z,20.70
2023-03-25T11:49:38.417Z,21.60
2023-03-25T11:52:27.650Z,20.33
2023-03-25T11:55:18.948Z,21.75
2023-03-25T11:58:04.352Z,22.23
2023-03-25T12:00:53.382Z,19.00
2023-03-25T12:03:39.512Z,21.02
2023-03-25T12:06:25.248Z,14.48
2023-03-25T12:09:11.929Z,16.15
2023-03-25T12:12:03.334Z,21.90
2023-03-25T12:14:57.111Z,19.10
2023-03-25T12:17:45.810Z,15.00
2023-03-25T12:20:57.697Z,18.05
2023-03-25T12:23:49.780Z,26.83
2023-03-25T12:27:02.462Z,18.70
2023-03-25T12:29:56.832Z,23.15
2023-03-25T12:32:54.220Z,18.10
2023-03-25T12:36:15.710Z,14.63
2023-03-25T12:39:42.599Z,18.00
2023-03-25T12:42:37.420Z,14.57
2023-03-25T12:45:58.432Z,14.93
2023-03-25T12:49:28.697Z,17.38
2023-03-25T12:52:17.051Z,15.55
2023-03-25T12:55:36.350Z,17.17
2023-03-25T12:58:35.330Z,17.60
2023-03-25T13:01:43.508Z,11.07
2023-03-25T13:04:50.142Z,16.95
2023-03-25T13:07:40.854Z,13.38
2023-03-25T13:10:33.590Z,15.75
2023-03-25T13:13:25.633Z,15.02
2023-03-25T13:16:16.242Z,16.75
2023-03-25T13:19:15.185Z,16.13
2023-03-25T13:22:06.057Z,13.70
2023-03-25T13:25:01.728Z,10.25
2023-03-25T13:27:49.716Z,14.68
2023-03-25T13:30:38.613Z,18.77
2023-03-25T13:33:27.926Z,11.00
2023-03-25T13:36:26.428Z,8.70
2023-03-25T13:39:20.812Z,11.90
2023-03-25T13:42:39.696Z,13.48
2023-03-25T13:45:27.384Z,6.32
2023-03-25T13:48:28.849Z,13.70
2023-03-25T13:51:14.351Z,13.95
2023-03-25T13:54:04.480Z,17.77
2023-03-25T14:00:11.062Z,9.30
2023-03-25T14:03:41.441Z,8.80
2023-03-25T14:07:05.586Z,10.25
2023-03-25T14:09:56.767Z,8.52
2023-03-25T14:12:57.085Z,15.02
2023-03-25T14:16:22.664Z,10.93
2023-03-25T14:19:13.296Z,15.10
2023-03-25T14:21:58.862Z,10.60
2023-03-25T14:24:46.048Z,14.23
2023-03-25T14:27:34.190Z,10.23
2023-03-25T14:30:23.625Z,10.23
2023-03-25T14:33:12.908Z,18.67
2023-03-25T14:35:57.965Z,11.65
2023-03-25T14:38:51.711Z,11.43
2023-03-25T14:42:08.847Z,9.30
2023-03-25T14:44:58.506Z,8.60
2023-03-25T14:47:53.263Z,5.93
2023-03-25T14:50:40.776Z,7.45
2023-03-25T14:53:27.284Z,7.38
2023-03-25T14:56:19.309Z,7.03
2023-03-25T14:59:21.190Z,6.15
2023-03-25T15:02:15.514Z,6.70
2023-03-25T15:05:15.591Z,3.83
2023-03-25T15:08:09.328Z,4.65
2023-03-25T15:11:11.877Z,3.30
2023-03-25T15:16:48.545Z,2.75
2023-03-25T15:20:02.956Z,4.47
2023-03-25T15:23:30.278Z,3.88
2023-03-25T15:26:39.000Z,5.15
2023-03-25T15:29:46.614Z,4.15
2023-03-25T15:32:53.891Z,4.03
2023-03-25T15:36:27.946Z,4.68
2023-03-25T15:39:39.903Z,6.25
2023-03-25T15:42:59.229Z,7.78
2023-03-25T15:46:03.243Z,5.13
2023-03-25T15:49:10.980Z,3.80
2023-03-25T15:52:10.729Z,4.50
2023-03-25T15:55:00.630Z,7.55
2023-03-25T15:57:59.391Z,3.22
2023-03-25T16:00:48.739Z,5.00
2023-03-25T16:03:34.971Z,6.45
2023-03-25T16:06:21.642Z,3.95
2023-03-25T16:09:11.417Z,4.60
2023-03-25T16:12:01.750Z,5.00
2023-03-25T16:14:47.418Z,3.78
2023-03-25T16:17:34.251Z,3.50
2023-03-25T16:20:26.626Z,3.85
2023-03-25T16:23:21.647Z,7.20
2023-03-25T16:26:06.923Z,5.53
2023-03-25T16:28:52.421Z,4.30
2023-03-25T16:31:42.746Z,8.57
2023-03-25T16:34:40.890Z,7.05
2023-03-25T16:37:26.694Z,3.25
2023-03-25T16:40:17.804Z,5.50
2023-03-25T16:43:22.076Z,4.90
2023-03-25T16:46:09.748Z,6.43
2023-03-25T16:48:57.265Z,6.75
2023-03-25T16:51:45.283Z,5.22
2023-03-25T16:54:36.277Z,4.78
2023-03-25T16:57:33.081Z,7.40
2023-03-25T17:00:23.066Z,6.82
2023-03-25T17:03:20.001Z,7.32
2023-03-25T17:06:17.042Z,5.18
2023-03-25T17:09:04.757Z,5.93
2023-03-25T17:11:54.395Z,6.90
2023-03-25T17:14:43.054Z,5.40
2023-03-25T17:17:51.165Z,5.60
2023-03-25T17:20:39.665Z,5.47
2023-03-25T17:23:40.645Z,9.10
2023-03-25T17:26:32.026Z,4.75
2023-03-25T17:29:18.154Z,4.93
2023-03-25T17:32:04.087Z,9.98
2023-03-25T17:35:06.331Z,4.45
2023-03-25T17:37:52.217Z,6.57
2023-03-25T17:40:37.713Z,7.82
2023-03-25T17:43:25.624Z,8.38
2023-03-25T17:46:13.757Z,7.30
2023-03-25T17:48:59.667Z,7.93
2023-03-25T17:51:46.563Z,5.53
2023-03-25T17:54:32.258Z,7.43
2023-03-25T17:57:19.085Z,6.30
2023-03-25T18:00:08.299Z,9.05
2023-03-25T18:02:53.737Z,9.23
2023-03-25T18:05:39.082Z,8.63
2023-03-25T18:08:25.129Z,7.53
2023-03-25T18:11:11.637Z,5.88
2023-03-25T18:13:56.673Z,5.78
2023-03-25T18:16:42.426Z,6.18
2023-03-25T18:19:31.218Z,5.18
2023-03-25T18:22:20.093Z,8.05
2023-03-25T18:25:06.593Z,6.78
2023-03-25T18:27:53.993Z,5.07
2023-03-25T18:30:50.945Z,6.03
2023-03-25T18:33:36.640Z,8.48
2023-03-25T18:36:22.583Z,5.72
2023-03-25T18:39:32.440Z,5.07
2023-03-25T18:42:17.686Z,8.00
2023-03-25T18:45:03.686Z,3.83
2023-03-25T18:47:49.587Z,6.50
2023-03-25T18:50:39.283Z,6.68
2023-03-25T18:53:29.496Z,5.72
2023-03-25T18:56:14.946Z,6.65
2023-03-25T18:59:00.389Z,5.68
2023-03-25T19:01:45.949Z,7.43
2023-03-25T19:04:32.336Z,5.75
2023-03-25T19:07:17.388Z,6.95
2023-03-25T19:10:03.381Z,3.58
2023-03-25T19:12:49.622Z,6.45
2023-03-25T19:15:35.370Z,7.75
2023-03-25T19:18:23.082Z,5.93
2023-03-25T19:21:08.734Z,6.00
2023-03-25T19:23:54.239Z,5.47
2023-03-25T19:26:39.466Z,7.43
2023-03-25T19:29:24.897Z,5.70
2023-03-25T19:32:10.448Z,5.47
2023-03-25T19:34:56.475Z,7.28
2023-03-25T19:37:50.566Z,5.95
2023-03-25T19:40:38.130Z,10.23
2023-03-25T19:43:23.320Z,8.05
2023-03-25T19:46:09.079Z,6.32
2023-03-25T19:48:54.146Z,7.32
2023-03-25T19:51:39.685Z,13.15
2023-03-25T19:54:25.515Z,9.75
2023-03-25T19:57:14.429Z,6.72
2023-03-25T19:59:59.999Z,11.23
2023-03-25T20:02:50.144Z,11.30
2023-03-25T20:05:37.085Z,5.32
2023-03-25T20:08:23.134Z,7.00
2023-03-25T20:11:12.125Z,10.68
2023-03-25T20:13:57.667Z,7.13
2023-03-25T20:16:43.107Z,12.07
2023-03-25T20:19:28.311Z,7.93
2023-03-25T20:22:24.296Z,8.45
2023-03-25T20:25:11.812Z,12.27
2023-03-25T20:27:57.591Z,8.93
2023-03-25T20:30:42.980Z,8.57
2023-03-25T20:33:28.699Z,12.38
2023-03-25T20:36:14.999Z,9.75
2023-03-25T20:39:05.456Z,12.35
2023-03-25T20:41:51.482Z,9.38
2023-03-25T20:44:37.306Z,8.25
2023-03-25T20:47:22.619Z,8.85
2023-03-25T20:50:09.718Z,7.85
2023-03-25T20:52:55.603Z,6.70
2023-03-25T20:55:41.285Z,5.28
2023-03-25T20:58:28.589Z,12.25
2023-03-25T21:01:15.487Z,9.00
2023-03-25T21:04:02.205Z,7.57
2023-03-25T21:06:48.182Z,9.02
2023-03-25T21:09:33.595Z,8.20
2023-03-25T21:12:19.053Z,6.15
2023-03-25T21:15:06.380Z,6.80
2023-03-25T21:17:52.258Z,7.28
2023-03-25T21:20:39.600Z,8.90
2023-03-25T21:23:28.232Z,9.70
2023-03-25T21:26:16.553Z,8.70
2023-03-25T21:29:02.283Z,6.43
2023-03-25T21:31:47.735Z,8.15
2023-03-25T21:34:33.034Z,7.90
2023-03-25T21:37:18.546Z,9.60
2023-03-25T21:40:07.912Z,5.78
2023-03-25T21:42:53.452Z,8.30
2023-03-25T21:45:40.692Z,8.02
2023-03-25T21:48:26.843Z,8.25
2023-03-25T21:51:14.585Z,6.22
2023-03-25T21:54:00.561Z,5.35
2023-03-25T21:56:51.927Z,4.78
2023-03-25T21:59:37.786Z,8.00
2023-03-25T22:02:25.358Z,5.15
2023-03-25T22:05:11.822Z,5.88
2023-03-25T22:07:58.890Z,6.55
2023-03-25T22:10:44.103Z,5.35
2023-03-25T22:13:30.017Z,4.78
2023-03-25T22:16:17.933Z,4.88
2023-03-25T22:19:04.153Z,4.22
2023-03-25T22:21:49.373Z,3.83
2023-03-25T22:24:34.941Z,6.63
2023-03-25T22:27:20.339Z,4.70
2023-03-25T22:30:08.009Z,4.60
2023-03-25T22:32:53.553Z,6.30
2023-03-25T22:35:40.974Z,5.43
2023-03-25T22:38:26.489Z,6.05
2023-03-25T22:41:14.567Z,6.13
2023-03-25T22:44:00.413Z,8.73
2023-03-25T22:46:47.274Z,5.72
2023-03-25T22:49:33.250Z,5.75
2023-03-25T22:52:18.814Z,5.80
2023-03-25T22:55:06.320Z,4.85
2023-03-25T22:57:51.831Z,5.07
2023-03-25T23:00:37.509Z,4.57
2023-03-25T23:03:24.619Z,5.20
2023-03-25T23:06:10.469Z,4.13
2023-03-25T23:08:56.981Z,5.20
2023-03-25T23:11:42.600Z,3.95
2023-03-25T23:14:28.008Z,4.85
2023-03-25T23:17:13.835Z,5.15
2023-03-25T23:19:59.298Z,3.10
2023-03-25T23:22:44.746Z,5.22
2023-03-25T23:25:31.377Z,3.25
2023-03-25T23:28:18.137Z,2.70
2023-03-25T23:31:13.299Z,2.65
2023-03-25T23:34:00.533Z,5.35
2023-03-25T23:36:46.734Z,3.08
2023-03-25T23:39:31.932Z,6.32
2023-03-25T23:42:17.398Z,5.85
2023-03-25T23:45:03.319Z,3.63
2023-03-25T23:47:49.279Z,3.25
2023-03-25T23:50:35.360Z,4.80
2023-03-25T23:53:20.844Z,2.35
2023-03-25T23:56:07.277Z,3.25
2023-03-25T23:58:52.916Z,3.13
